Time;durP1;ratioP1;P1;durP2;ratioP2;P2;SDS_P1;SDS_P2;PMS_P1;PMS_P2;Temp;Humidity;BMP_temperature;BMP_pressure;BME280_temperature;BME280_humidity;BME280_pressure;Samples;Min_cycle;Max_cycle;Signal;HPM_P1;HPM_P2
2021/06/08 00:01:48;;;;;;;66.65;38.17;;;;;;;15.52;100.00;98364.00;5033867;28;20052;-76
2021/06/08 00:04:16;;;;;;;59.63;37.40;;;;;;;15.59;100.00;98372.47;5033267;28;20329;-77
2021/06/08 00:06:43;;;;;;;58.80;35.90;;;;;;;15.66;100.00;98361.03;5052261;28;20049;-77
2021/06/08 00:09:09;;;;;;;72.65;41.00;;;;;;;15.70;100.00;98367.44;5044337;28;20052;-76
2021/06/08 00:11:36;;;;;;;58.90;36.63;;;;;;;15.75;100.00;98353.59;5055766;28;20037;-77
2021/06/08 00:14:03;;;;;;;67.60;38.90;;;;;;;15.75;100.00;98356.31;5053615;28;20048;-77
2021/06/08 00:16:31;;;;;;;62.35;39.60;;;;;;;15.76;100.00;98356.00;5037510;28;20163;-77
2021/06/08 00:18:58;;;;;;;69.15;41.53;;;;;;;15.65;100.00;98362.97;5057130;28;20049;-76
2021/06/08 00:21:24;;;;;;;68.72;39.85;;;;;;;15.60;100.00;98371.34;5056270;28;20076;-77
2021/06/08 00:23:51;;;;;;;71.10;42.60;;;;;;;15.56;100.00;98370.41;5056953;28;20100;-77
2021/06/08 00:26:20;;;;;;;73.88;43.25;;;;;;;15.49;100.00;98373.63;5056510;28;20055;-77
2021/06/08 00:28:46;;;;;;;68.20;41.67;;;;;;;15.50;100.00;98375.25;5054802;28;20063;-77
2021/06/08 00:31:13;;;;;;;85.15;46.47;;;;;;;15.46;100.00;98376.22;5037247;28;20290;-77
2021/06/08 00:33:42;;;;;;;73.53;44.17;;;;;;;15.40;100.00;98378.31;5051990;28;20041;-77
2021/06/08 00:36:10;;;;;;;76.30;42.53;;;;;;;15.38;100.00;98371.59;5017114;28;20044;-77
2021/06/08 00:38:37;;;;;;;75.82;43.88;;;;;;;15.37;100.00;98370.78;5054526;28;20512;-77
2021/06/08 00:41:05;;;;;;;77.97;44.28;;;;;;;15.40;100.00;98370.13;5036963;28;20048;-76
2021/06/08 00:43:35;;;;;;;84.70;47.13;;;;;;;15.44;100.00;98356.63;5019287;28;20049;-76
2021/06/08 00:46:02;;;;;;;86.70;45.20;;;;;;;15.43;100.00;98366.72;5036242;28;20052;-76
2021/06/08 00:48:29;;;;;;;75.75;43.47;;;;;;;15.54;100.00;98367.19;5051646;28;20049;-77
2021/06/08 00:50:56;;;;;;;78.75;43.85;;;;;;;15.61;100.00;98364.78;5036370;28;20041;-77
2021/06/08 00:53:23;;;;;;;74.80;43.88;;;;;;;15.63;100.00;98365.22;5035696;28;20547;-77
2021/06/08 00:55:51;;;;;;;73.53;43.05;;;;;;;15.71;100.00;98360.84;5024052;28;20049;-77
2021/06/08 00:58:18;;;;;;;65.93;40.40;;;;;;;15.81;100.00;98355.00;5022816;28;20402;-77
2021/06/08 01:00:44;;;;;;;64.72;39.00;;;;;;;15.92;100.00;98350.75;5056486;28;20139;-77
2021/06/08 01:03:11;;;;;;;64.68;38.80;;;;;;;15.99;100.00;98351.84;5051795;28;20103;-76
2021/06/08 01:05:38;;;;;;;60.63;38.67;;;;;;;16.00;100.00;98347.94;5052401;28;20048;-76
2021/06/08 01:08:05;;;;;;;64.88;38.65;;;;;;;15.96;100.00;98343.50;5052075;28;20128;-76
2021/06/08 01:10:37;;;;;;;66.38;40.08;;;;;;;15.94;100.00;98352.03;5052088;28;20049;-77
2021/06/08 01:13:03;;;;;;;74.60;42.03;;;;;;;15.90;100.00;98348.34;5033815;28;20037;-77
2021/06/08 01:15:30;;;;;;;68.97;42.03;;;;;;;15.87;100.00;98342.75;5053945;28;20516;-76
2021/06/08 01:17:58;;;;;;;73.72;42.08;;;;;;;15.87;100.00;98340.81;5039501;28;20052;-77
2021/06/08 01:20:25;;;;;;;77.75;44.50;;;;;;;15.83;100.00;98333.63;5038868;28;20045;-77
2021/06/08 01:22:52;;;;;;;76.47;45.60;;;;;;;15.89;100.00;98340.50;5038049;28;20086;-76
2021/06/08 01:25:24;;;;;;;75.35;43.58;;;;;;;15.91;100.00;98336.31;5039398;28;20098;-77
2021/06/08 01:27:54;;;;;;;79.63;44.95;;;;;;;15.94;100.00;98326.63;5056148;28;20036;-76
2021/06/08 01:30:24;;;;;;;76.70;44.65;;;;;;;16.01;100.00;98327.72;5038216;28;20048;-77
2021/06/08 01:32:51;;;;;;;77.30;44.40;;;;;;;15.99;100.00;98329.16;5035160;28;20435;-77
2021/06/08 01:35:21;;;;;;;79.68;44.33;;;;;;;15.88;100.00;98319.78;5053636;28;20044;-75
2021/06/08 01:37:48;;;;;;;83.57;46.63;;;;;;;15.81;100.00;98328.50;5051530;28;20048;-76
2021/06/08 01:40:18;;;;;;;84.88;45.65;;;;;;;15.81;100.00;98328.50;5016649;28;20044;-76
2021/06/08 01:42:48;;;;;;;85.57;47.60;;;;;;;15.79;100.00;98328.03;5016551;28;20048;-76
2021/06/08 01:45:16;;;;;;;79.10;45.72;;;;;;;15.82;100.00;98319.16;5017401;28;20049;-78
2021/06/08 01:47:43;;;;;;;85.47;45.53;;;;;;;15.89;100.00;98329.56;5051460;28;20447;-76
2021/06/08 01:50:10;;;;;;;83.22;45.22;;;;;;;15.91;100.00;98313.66;5055054;28;20401;-77
2021/06/08 01:52:41;;;;;;;76.13;43.70;;;;;;;15.91;100.00;98311.72;5038144;28;20099;-77
2021/06/08 01:55:20;;;;;;;74.10;42.63;;;;;;;15.86;100.00;98311.91;5038746;28;20538;-76
2021/06/08 01:57:49;;;;;;;76.65;42.20;;;;;;;15.83;100.00;98312.56;5050847;28;20041;-76
2021/06/08 02:00:21;;;;;;;69.38;40.03;;;;;;;15.83;100.00;98309.84;5037584;28;20099;-77
2021/06/08 02:03:09;;;;;;;71.50;40.80;;;;;;;15.91;100.00;98316.38;5036282;28;20037;-77
2021/06/08 02:05:53;;;;;;;70.05;39.65;;;;;;;15.95;100.00;98314.59;5052773;28;20440;-76
2021/06/08 02:08:43;;;;;;;73.70;41.22;;;;;;;15.94;100.00;98310.25;5036055;28;20049;-76
2021/06/08 02:11:19;;;;;;;66.70;39.53;;;;;;;15.96;100.00;98314.25;5052985;28;20041;-76
2021/06/08 02:14:04;;;;;;;71.05;41.67;;;;;;;15.90;100.00;98309.31;5034711;28;20037;-77
2021/06/08 02:16:55;;;;;;;70.10;41.47;;;;;;;15.93;100.00;98314.09;5053504;28;20065;-76
2021/06/08 02:19:24;;;;;;;71.15;41.10;;;;;;;15.84;100.00;98306.00;5034754;28;20037;-77
2021/06/08 02:22:05;;;;;;;78.22;43.72;;;;;;;15.89;100.00;98324.09;5041765;28;20045;-77
2021/06/08 02:24:32;;;;;;;73.82;43.80;;;;;;;15.97;100.00;98323.25;5056221;28;20064;-77
2021/06/08 02:27:08;;;;;;;84.00;44.83;;;;;;;15.97;100.00;98310.41;5051261;28;20041;-77
2021/06/08 02:29:37;;;;;;;82.05;45.28;;;;;;;15.87;100.00;98324.44;5051023;28;20041;-77
2021/06/08 02:32:06;;;;;;;81.80;45.60;;;;;;;15.85;100.00;98321.22;5032073;28;20124;-77
2021/06/08 02:34:33;;;;;;;80.47;43.85;;;;;;;15.93;100.00;98320.38;5049463;28;20506;-76
2021/06/08 02:37:01;;;;;;;71.97;42.90;;;;;;;15.85;100.00;98318.50;5049746;28;20076;-76
2021/06/08 02:39:28;;;;;;;73.97;43.28;;;;;;;15.83;100.00;98315.31;5032072;28;20056;-76
2021/06/08 02:41:56;;;;;;;79.85;43.50;;;;;;;15.83;100.00;98326.22;5049732;28;20099;-76
2021/06/08 02:44:24;;;;;;;72.78;43.08;;;;;;;15.78;100.00;98309.25;5049241;28;20052;-77
2021/06/08 02:46:52;;;;;;;74.50;42.67;;;;;;;15.82;100.00;98326.56;5056513;28;20040;-76
2021/06/08 02:49:21;;;;;;;79.55;46.83;;;;;;;15.77;100.00;98324.03;5053540;28;20045;-78
2021/06/08 02:51:49;;;;;;;79.90;45.35;;;;;;;15.75;100.00;98326.28;5039466;28;20542;-78
2021/06/08 02:54:18;;;;;;;87.20;45.45;;;;;;;15.73;100.00;98340.28;5033099;28;20114;-76
2021/06/08 02:56:46;;;;;;;81.43;47.00;;;;;;;15.78;100.00;98333.81;5032574;28;20554;-78
2021/06/08 02:59:13;;;;;;;88.80;47.75;;;;;;;15.78;100.00;98345.53;5037376;28;20057;-77
2021/06/08 03:01:47;;;;;;;83.07;46.15;;;;;;;15.71;100.00;98328.91;5029856;28;20053;-76
2021/06/08 03:04:18;;;;;;;88.07;46.95;;;;;;;15.75;100.00;98343.47;5012148;28;20573;-77
2021/06/08 03:06:58;;;;;;;86.78;47.47;;;;;;;15.67;100.00;98351.69;5014232;28;20048;-77
2021/06/08 03:09:36;;;;;;;93.00;48.80;;;;;;;15.62;100.00;98346.44;5013528;28;20303;-77
2021/06/08 03:12:08;;;;;;;92.05;48.47;;;;;;;15.64;100.00;98342.25;5013006;28;20236;-77
2021/06/08 03:14:37;;;;;;;88.88;49.55;;;;;;;15.48;100.00;98347.50;5030159;28;20084;-77
2021/06/08 03:17:05;;;;;;;102.43;48.90;;;;;;;15.46;100.00;98351.66;5031602;28;20053;-77
2021/06/08 03:19:33;;;;;;;97.05;50.53;;;;;;;15.35;100.00;98351.22;5029924;28;20396;-77
2021/06/08 03:22:07;;;;;;;105.13;50.38;;;;;;;15.41;100.00;98370.91;5031017;28;20103;-77
2021/06/08 03:24:38;;;;;;;105.57;51.65;;;;;;;15.39;100.00;98365.00;5013469;28;20464;-77
2021/06/08 03:27:06;;;;;;;101.95;51.50;;;;;;;15.40;100.00;98370.13;5013798;28;20041;-77
2021/06/08 03:29:34;;;;;;;98.97;49.20;;;;;;;15.42;100.00;98367.06;5013607;28;20072;-77
2021/06/08 03:32:02;;;;;;;104.10;51.78;;;;;;;15.37;100.00;98367.25;5030878;28;20046;-77
2021/06/08 03:34:32;;;;;;;100.88;51.17;;;;;;;15.44;100.00;98373.00;5013051;28;20483;-78
2021/06/08 03:37:01;;;;;;;108.78;51.70;;;;;;;15.43;100.00;98371.41;5012621;28;20045;-77
2021/06/08 03:39:28;;;;;;;108.38;52.40;;;;;;;15.36;100.00;98365.63;5013362;28;20051;-77
2021/06/08 03:41:56;;;;;;;112.85;53.67;;;;;;;15.36;100.00;98377.34;5030485;28;20053;-78
2021/06/08 03:44:24;;;;;;;126.00;56.10;;;;;;;15.28;100.00;98366.50;5030569;28;20041;-77
2021/06/08 03:46:51;;;;;;;121.38;53.38;;;;;;;15.26;100.00;98377.72;5014655;28;20045;-77
2021/06/08 03:49:19;;;;;;;122.43;55.92;;;;;;;15.29;100.00;98376.28;5029383;28;20068;-76
2021/06/08 03:51:54;;;;;;;124.97;54.72;;;;;;;15.27;100.00;98386.72;5031242;28;20453;-77
2021/06/08 03:54:22;;;;;;;126.45;54.80;;;;;;;15.23;100.00;98383.81;5029704;28;20103;-76
2021/06/08 03:56:53;;;;;;;132.82;56.88;;;;;;;15.23;100.00;98391.22;4997506;28;20054;-77
2021/06/08 03:59:25;;;;;;;127.07;54.92;;;;;;;15.21;100.00;98388.00;5016014;28;20055;-77
2021/06/08 04:01:53;;;;;;;124.90;55.60;;;;;;;15.21;100.00;98388.00;5033300;28;20091;-77
2021/06/08 04:04:21;;;;;;;131.13;57.25;;;;;;;15.19;100.00;98395.72;5032977;28;20381;-78
2021/06/08 04:06:48;;;;;;;137.02;56.63;;;;;;;15.22;100.00;98400.53;5031604;28;20049;-78
2021/06/08 04:09:15;;;;;;;132.30;55.47;;;;;;;15.18;100.00;98392.19;5011402;28;20049;-77
2021/06/08 04:11:46;;;;;;;140.63;56.67;;;;;;;15.21;100.00;98393.47;5030477;28;20046;-77
2021/06/08 04:14:17;;;;;;;145.73;57.13;;;;;;;15.20;100.00;98397.34;5010306;28;20041;-77
2021/06/08 04:16:45;;;;;;;138.13;58.22;;;;;;;15.19;100.00;98395.72;5028225;28;20052;-77
2021/06/08 04:19:12;;;;;;;148.50;57.30;;;;;;;15.25;100.00;98399.88;5027689;28;20041;-79
2021/06/08 04:21:41;;;;;;;153.95;59.05;;;;;;;15.19;100.00;98395.72;5011957;28;20075;-78
2021/06/08 04:24:09;;;;;;;156.90;59.85;;;;;;;15.15;100.00;98395.56;5011062;28;20064;-78
2021/06/08 04:26:36;;;;;;;160.50;60.28;;;;;;;15.27;100.00;98400.34;5029143;28;20076;-78
2021/06/08 04:29:03;;;;;;;145.10;56.95;;;;;;;15.31;100.00;98398.56;5011200;28;20045;-78
2021/06/08 04:31:32;;;;;;;159.57;58.03;;;;;;;15.29;100.00;98390.72;5032029;28;20041;-77
2021/06/08 04:33:59;;;;;;;155.95;59.15;;;;;;;15.31;100.00;98399.38;5014634;28;20489;-77
2021/06/08 04:36:26;;;;;;;148.95;58.40;;;;;;;15.37;100.00;98400.00;5031892;28;20115;-77
2021/06/08 04:38:55;;;;;;;145.07;56.95;;;;;;;15.58;100.00;98396.25;5013976;28;20045;-77
2021/06/08 04:41:22;;;;;;;118.18;53.58;;;;;;;15.63;100.00;98392.53;5032429;28;20041;-77
2021/06/08 04:43:49;;;;;;;118.30;52.83;;;;;;;15.68;100.00;98392.34;5031978;28;20042;-78
2021/06/08 04:46:17;;;;;;;99.95;47.83;;;;;;;15.73;100.00;98383.97;5032015;28;20045;-77
2021/06/08 04:48:44;;;;;;;108.00;49.80;;;;;;;15.80;100.00;98386.16;4997461;28;20604;-77
2021/06/08 04:51:12;;;;;;;100.63;48.00;;;;;;;15.78;100.00;98382.97;4999317;28;20053;-77
2021/06/08 04:53:40;;;;;;;108.70;49.83;;;;;;;15.89;100.00;98387.72;5013694;28;20034;-77
2021/06/08 04:56:07;;;;;;;100.15;46.65;;;;;;;15.97;100.00;98384.16;5031353;28;20095;-76
2021/06/08 04:58:39;;;;;;;102.20;48.78;;;;;;;16.02;100.00;98378.47;5031357;28;20052;-78
2021/06/08 05:01:27;;;;;;;103.57;48.72;;;;;;;15.99;100.00;98384.59;5014035;28;20061;-77
2021/06/08 05:04:02;;;;;;;99.60;46.70;;;;;;;16.13;100.00;98381.63;5013167;28;20139;-78
2021/06/08 05:06:32;;;;;;;108.72;47.78;;;;;;;16.22;100.00;98371.41;5032687;28;20038;-78
2021/06/08 05:09:13;;;;;;;98.53;46.85;;;;;;;16.15;100.00;98384.81;5015343;28;20500;-78
2021/06/08 05:11:46;;;;;;;96.07;45.10;;;;;;;16.23;100.00;98376.53;5033263;28;20037;-78
2021/06/08 05:14:16;;;;;;;105.78;48.38;;;;;;;16.35;100.00;98373.09;5032000;28;20037;-78
2021/06/08 05:16:48;;;;;;;99.63;47.67;;;;;;;16.34;100.00;98382.41;5032336;28;20107;-78
2021/06/08 05:19:19;;;;;;;111.53;47.33;;;;;;;16.34;100.00;98376.13;5031910;28;20091;-77
2021/06/08 05:21:47;;;;;;;89.15;43.63;;;;;;;16.53;100.00;98384.69;5032023;28;20049;-78
2021/06/08 05:24:15;;;;;;;88.80;43.47;;;;;;;16.40;100.00;98385.72;5031255;28;20072;-77
2021/06/08 05:26:44;;;;;;;84.85;40.45;;;;;;;16.57;100.00;98377.44;5031292;28;20541;-78
2021/06/08 05:29:11;;;;;;;67.28;35.45;;;;;;;16.58;100.00;98370.81;5013936;28;20037;-77
2021/06/08 05:31:38;;;;;;;67.50;34.80;;;;;;;16.64;100.00;98367.56;4997995;28;20045;-78
2021/06/08 05:34:04;;;;;;;67.20;36.20;;;;;;;16.52;100.00;98359.28;5030033;28;20041;-77
2021/06/08 05:36:36;;;;;;;63.55;33.75;;;;;;;16.69;100.00;98369.28;5030905;28;20273;-78
2021/06/08 05:39:03;;;;;;;78.85;39.53;;;;;;;16.69;100.00;98372.00;5032150;28;20099;-78
2021/06/08 05:41:30;;;;;;;81.07;38.13;;;;;;;16.62;100.00;98379.97;5014890;28;20072;-78
2021/06/08 05:43:57;;;;;;;82.55;39.20;;;;;;;16.53;100.00;98380.03;5031912;28;20092;-77
2021/06/08 05:46:28;;;;;;;73.65;39.00;;;;;;;16.49;100.00;98381.00;5015061;28;20483;-78
2021/06/08 05:48:57;;;;;;;76.57;37.83;;;;;;;16.48;100.00;98382.13;5032695;28;20053;-77
2021/06/08 05:51:24;;;;;;;67.72;35.42;;;;;;;16.51;100.00;98387.75;5031371;28;20498;-77
2021/06/08 05:53:53;;;;;;;64.85;33.75;;;;;;;16.64;100.00;98381.22;5031252;28;20277;-78
2021/06/08 05:56:23;;;;;;;70.30;34.65;;;;;;;16.62;100.00;98383.47;5031683;28;20041;-78
2021/06/08 05:58:54;;;;;;;63.72;33.33;;;;;;;16.73;100.00;98375.66;5030654;28;20132;-78
2021/06/08 06:01:22;;;;;;;60.58;34.03;;;;;;;16.90;100.00;98371.97;5030642;28;20056;-77
2021/06/08 06:03:50;;;;;;;64.60;35.10;;;;;;;16.90;100.00;98369.22;5029017;28;20396;-77
2021/06/08 06:06:17;;;;;;;63.67;34.40;;;;;;;16.83;100.00;98376.03;5029305;28;20045;-77
2021/06/08 06:08:45;;;;;;;63.13;33.58;;;;;;;17.06;100.00;98373.69;5030707;28;20049;-77
2021/06/08 06:11:14;;;;;;;69.10;34.72;;;;;;;16.79;100.00;98374.31;4996589;28;20049;-77
2021/06/08 06:13:48;;;;;;;69.20;35.35;;;;;;;16.85;100.00;98381.19;5011354;28;20594;-77
2021/06/08 06:16:19;;;;;;;73.72;35.90;;;;;;;16.92;100.00;98391.56;5033381;28;20052;-77
2021/06/08 06:18:48;;;;;;;66.20;34.50;;;;;;;17.05;100.00;98383.06;5019421;28;20064;-78
2021/06/08 06:21:16;;;;;;;72.00;36.05;;;;;;;17.19;100.00;98379.97;5036435;28;20072;-78
2021/06/08 06:23:44;;;;;;;74.38;35.78;;;;;;;17.29;100.00;98380.34;5034561;28;20108;-78
2021/06/08 06:26:10;;;;;;;69.43;35.05;;;;;;;17.54;100.00;98378.47;5032110;28;20175;-78
2021/06/08 06:28:41;;;;;;;71.97;36.00;;;;;;;17.62;100.00;98374.03;5032867;28;20667;-78
2021/06/08 06:31:09;;;;;;;68.15;35.53;;;;;;;17.64;100.00;98375.28;5032478;28;20053;-79
2021/06/08 06:33:36;;;;;;;77.90;37.05;;;;;;;17.57;100.00;98377.78;5033477;28;20416;-78
2021/06/08 06:36:04;;;;;;;76.18;37.22;;;;;;;17.71;100.00;98380.16;5033027;28;20045;-78
2021/06/08 06:38:31;;;;;;;71.80;34.47;;;;;;;17.92;100.00;98375.34;5029423;28;20045;-78
2021/06/08 06:41:03;;;;;;;70.68;35.47;;;;;;;17.79;100.00;98371.03;5029873;28;20045;-78
2021/06/08 06:43:32;;;;;;;66.60;34.03;;;;;;;17.81;100.00;98376.97;5030904;28;20038;-78
2021/06/08 06:45:59;;;;;;;74.10;36.00;;;;;;;17.68;100.00;98381.66;5032922;28;20104;-78
2021/06/08 06:48:31;;;;;;;65.55;35.22;;;;;;;17.68;100.00;98375.41;5013784;28;20500;-78
2021/06/08 06:50:57;;;;;;;69.10;34.58;;;;;;;17.95;100.00;98382.91;5031081;28;20053;-77
2021/06/08 06:53:29;;;;;;;70.60;34.75;;;;;;;18.56;100.00;98376.13;5011852;28;20053;-77
2021/06/08 06:55:55;;;;;;;59.58;33.38;;;;;;;18.58;100.00;98379.31;5031303;28;20049;-78
2021/06/08 06:58:24;;;;;;;62.60;32.78;;;;;;;18.65;100.00;98376.81;5029100;28;20224;-78
2021/06/08 07:00:54;;;;;;;63.67;32.83;;;;;;;18.57;100.00;98385.16;5011212;28;20443;-77
2021/06/08 07:03:28;;;;;;;64.72;34.50;;;;;;;18.62;100.00;98369.25;5027791;28;20045;-79
2021/06/08 07:05:58;;;;;;;62.00;33.50;;;;;;;18.54;100.00;98367.47;5013737;28;20079;-78
2021/06/08 07:08:27;;;;;;;56.72;29.85;;;;;;;18.69;100.00;98379.63;5031791;28;20045;-77
2021/06/08 07:10:54;;;;;;;59.30;31.20;;;;;;;18.97;100.00;98374.91;5029083;28;20099;-78
2021/06/08 07:13:21;;;;;;;53.50;29.45;;;;;;;19.44;100.00;98371.44;5027599;28;20500;-77
2021/06/08 07:15:49;;;;;;;56.10;29.73;;;;;;;19.44;100.00;98374.97;5011046;28;20107;-78
2021/06/08 07:18:17;;;;;;;48.88;28.67;;;;;;;19.11;100.00;98375.31;5030183;28;20120;-78
2021/06/08 07:20:44;;;;;;;54.45;30.45;;;;;;;18.87;100.00;98380.09;5013663;28;20057;-77
2021/06/08 07:23:16;;;;;;;50.70;28.52;;;;;;;18.66;100.00;98378.38;5028517;28;20055;-77
2021/06/08 07:25:43;;;;;;;50.72;27.80;;;;;;;18.72;100.00;98387.16;5027074;28;20567;-78
2021/06/08 07:28:11;;;;;;;53.95;27.27;;;;;;;18.68;100.00;98381.56;5011739;28;20057;-78
2021/06/08 07:30:41;;;;;;;46.67;27.05;;;;;;;18.76;100.00;98385.34;5012191;28;20089;-78
2021/06/08 07:33:47;;;;;;;53.30;27.90;;;;;;;19.14;100.00;98388.31;4466867;28;15202106;-78
2021/06/08 07:36:28;;;;;;;51.20;27.30;;;;;;;19.60;100.00;98377.72;5008455;28;20319;-77
2021/06/08 07:39:10;;;;;;;51.42;28.95;;;;;;;19.63;100.00;98385.25;5029672;28;20049;-77
2021/06/08 07:42:15;;;;;;;56.33;31.88;;;;;;;19.60;100.00;98391.47;5031704;28;20037;-78
2021/06/08 07:44:58;;;;;;;57.35;32.30;;;;;;;19.22;100.00;98387.38;5030708;28;20494;-79
2021/06/08 07:47:28;;;;;;;57.92;32.80;;;;;;;18.97;100.00;98390.59;5014253;28;20053;-79
2021/06/08 07:49:55;;;;;;;59.53;33.38;;;;;;;19.01;100.00;98386.00;5030062;28;20045;-77
2021/06/08 07:52:23;;;;;;;61.13;33.50;;;;;;;19.35;100.00;98393.56;5030477;28;20493;-77
2021/06/08 07:54:51;;;;;;;62.65;31.60;;;;;;;19.61;100.00;98390.31;5029771;28;20053;-77
2021/06/08 07:57:19;;;;;;;59.25;31.55;;;;;;;19.65;100.00;98378.25;5031514;28;20057;-78
2021/06/08 07:59:51;;;;;;;57.55;31.80;;;;;;;19.40;100.00;98385.09;5031720;28;20084;-77
2021/06/08 08:02:20;;;;;;;59.45;31.85;;;;;;;19.57;100.00;98395.72;5032806;28;20492;-79
2021/06/08 08:05:00;;;;;;;54.25;30.20;;;;;;;19.62;100.00;98381.72;5013289;28;20103;-78
2021/06/08 08:07:30;;;;;;;50.95;28.75;;;;;;;19.88;100.00;98378.41;5029981;28;20064;-79
2021/06/08 08:09:57;;;;;;;51.78;29.48;;;;;;;19.84;100.00;98378.34;5013700;28;20111;-78
2021/06/08 08:12:24;;;;;;;62.40;33.17;;;;;;;19.88;100.00;98381.16;5030679;28;20053;-78
2021/06/08 08:14:52;;;;;;;61.05;30.98;;;;;;;20.15;100.00;98371.16;5029634;28;20041;-78
2021/06/08 08:17:23;;;;;;;52.80;31.55;;;;;;;20.41;100.00;98379.63;5014000;28;20088;-78
2021/06/08 08:19:53;;;;;;;60.92;31.83;;;;;;;20.23;100.00;98378.41;5030191;28;20045;-79
2021/06/08 08:22:22;;;;;;;59.45;30.60;;;;;;;20.42;100.00;98384.75;5034736;28;20042;-77
2021/06/08 08:24:49;;;;;;;48.90;28.98;;;;;;;20.41;100.00;98383.16;5015591;28;20047;-78
2021/06/08 08:27:15;;;;;;;56.78;30.45;;;;;;;20.54;100.00;98372.03;5030692;28;20056;-79
2021/06/08 08:29:45;;;;;;;50.75;29.88;;;;;;;20.70;100.00;98375.50;5027626;28;20288;-78
2021/06/08 08:32:14;;;;;;;55.78;30.70;;;;;;;20.52;100.00;98377.09;5011316;28;20045;-78
2021/06/08 08:34:42;;;;;;;54.22;30.08;;;;;;;20.43;100.00;98380.06;5012283;28;20042;-78
2021/06/08 08:37:09;;;;;;;57.95;31.73;;;;;;;20.38;100.00;98386.66;5030391;28;20099;-78
2021/06/08 08:39:36;;;;;;;57.88;30.65;;;;;;;20.58;100.00;98387.44;5029331;28;20046;-78
2021/06/08 08:42:05;;;;;;;49.88;29.40;;;;;;;20.66;100.00;98378.16;5031386;28;20115;-78
2021/06/08 08:44:32;;;;;;;52.00;29.40;;;;;;;20.79;100.00;98376.88;5010154;28;20041;-78
2021/06/08 08:46:59;;;;;;;57.45;29.33;;;;;;;20.80;100.00;98372.16;5028670;28;20041;-77
2021/06/08 08:49:27;;;;;;;55.50;28.75;;;;;;;20.68;100.00;98370.34;5011167;28;20068;-77
2021/06/08 08:51:55;;;;;;;46.35;26.65;;;;;;;20.88;100.00;98366.41;5010857;28;20050;-77
2021/06/08 08:54:25;;;;;;;47.17;30.08;;;;;;;20.84;100.00;98376.56;5010425;28;20033;-77
2021/06/08 08:56:52;;;;;;;53.42;31.67;;;;;;;20.96;100.00;98370.88;5030770;28;20362;-77
2021/06/08 08:59:21;;;;;;;50.90;32.45;;;;;;;20.97;100.00;98369.75;5011490;28;20046;-77
2021/06/08 09:01:50;;;;;;;51.33;31.67;;;;;;;21.24;100.00;98376.13;5011244;28;20045;-77
2021/06/08 09:04:19;;;;;;;55.80;32.60;;;;;;;21.35;100.00;98363.34;5028711;28;20443;-78
2021/06/08 09:06:46;;;;;;;54.95;32.67;;;;;;;20.83;100.00;98358.44;5029305;28;20114;-78
2021/06/08 09:09:12;;;;;;;53.40;31.48;;;;;;;21.30;100.00;98363.66;5028908;28;20045;-78
2021/06/08 09:11:42;;;;;;;52.95;31.67;;;;;;;21.69;100.00;98367.88;5029393;28;20045;-78
2021/06/08 09:14:11;;;;;;;52.38;31.65;;;;;;;21.43;100.00;98359.56;5029595;28;20489;-77
2021/06/08 09:16:41;;;;;;;48.13;31.13;;;;;;;21.78;100.00;98373.13;5032892;28;20049;-78
2021/06/08 09:19:10;;;;;;;53.00;31.20;;;;;;;21.77;100.00;98367.97;5033262;28;20055;-78
2021/06/08 09:21:39;;;;;;;50.83;30.08;;;;;;;21.96;100.00;98351.38;5035886;28;20065;-78
2021/06/08 09:24:18;;;;;;;49.65;30.48;;;;;;;21.71;100.00;98371.03;5017011;28;20045;-78
2021/06/08 09:27:05;;;;;;;49.53;28.63;;;;;;;21.60;100.00;98366.53;5033363;28;20041;-77
2021/06/08 09:29:37;;;;;;;48.50;30.50;;;;;;;21.88;100.00;98363.47;5015315;28;20041;-78
2021/06/08 09:32:30;;;;;;;48.38;30.45;;;;;;;21.96;100.00;98363.19;5033102;28;20037;-78
2021/06/08 09:34:59;;;;;;;52.50;31.67;;;;;;;22.44;100.00;98363.44;5012086;28;20405;-77
2021/06/08 09:37:35;;;;;;;51.55;31.70;;;;;;;22.95;100.00;98358.94;5015393;28;20041;-78
2021/06/08 09:40:21;;;;;;;;;;;;;;;23.41;100.00;98365.75;5033268;28;20068;-77
2021/06/08 09:43:04;;;;;;;55.92;31.02;;;;;;;24.59;100.00;98340.44;5031610;28;19928;-77
2021/06/08 09:45:44;;;;;;;42.65;29.63;;;;;;;25.21;100.00;98346.59;5031021;28;20295;-77
2021/06/08 09:48:14;;;;;;;44.15;28.80;;;;;;;25.50;100.00;98342.66;5032708;28;20099;-77
2021/06/08 09:50:47;;;;;;;50.15;29.67;;;;;;;26.09;100.00;98341.03;5034088;28;20041;-78
2021/06/08 09:53:25;;;;;;;47.55;29.27;;;;;;;25.99;100.00;98336.25;5016583;28;20572;-78
2021/06/08 09:55:51;;;;;;;45.65;29.08;;;;;;;25.76;100.00;98339.47;5015436;28;20084;-78
2021/06/08 09:58:18;;;;;;;44.65;28.45;;;;;;;25.69;100.00;98338.69;5033641;28;20049;-78
2021/06/08 10:01:07;;;;;;;40.15;28.25;;;;;;;26.19;100.00;98333.88;5016045;28;20041;-79
2021/06/08 10:03:44;;;;;;;39.90;26.85;;;;;;;26.49;100.00;98339.72;5032618;28;20057;-79
2021/06/08 10:06:23;;;;;;;42.03;26.80;;;;;;;27.66;100.00;98334.28;5033278;28;20493;-79
2021/06/08 10:08:52;;;;;;;45.42;26.25;;;;;;;26.98;100.00;98327.59;5033252;28;20079;-78
2021/06/08 10:11:22;;;;;;;48.70;29.50;;;;;;;28.20;100.00;98332.59;5032955;28;20091;-79
2021/06/08 10:13:53;;;;;;;43.78;28.58;;;;;;;27.43;100.00;98334.06;5032184;28;20107;-78
2021/06/08 10:16:31;;;;;;;51.78;31.50;;;;;;;27.51;100.00;98330.81;5015479;28;20046;-78
2021/06/08 10:18:59;;;;;;;50.58;30.75;;;;;;;27.55;100.00;98337.16;5015237;28;20447;-78
2021/06/08 10:21:52;;;;;;;44.15;28.73;;;;;;;28.53;76.21;98322.63;5033517;28;20045;-78
2021/06/08 10:24:21;;;;;;;42.65;26.40;;;;;;;28.64;88.95;98331.69;5012922;28;20095;-78
2021/06/08 10:26:53;;;;;;;44.13;27.45;;;;;;;29.45;66.69;98325.72;4997474;28;20056;-79
2021/06/08 10:29:22;;;;;;;42.25;25.60;;;;;;;29.60;62.60;98326.31;5032778;28;20046;-79
2021/06/08 10:31:50;;;;;;;37.55;24.50;;;;;;;29.68;59.63;98319.41;5015534;28;20056;-78
2021/06/08 10:34:34;;;;;;;32.70;22.85;;;;;;;30.80;56.46;98313.63;4999979;28;20092;-79
2021/06/08 10:37:01;;;;;;;35.17;22.70;;;;;;;30.78;54.59;98306.91;5046972;28;20445;-79
2021/06/08 10:39:29;;;;;;;38.85;25.65;;;;;;;30.23;57.06;98313.19;5052308;28;20041;-79
2021/06/08 10:41:58;;;;;;;42.75;28.35;;;;;;;30.23;59.49;98307.63;5035814;28;20114;-78
2021/06/08 10:44:28;;;;;;;42.67;27.17;;;;;;;30.51;61.06;98312.66;5052405;28;20056;-78
2021/06/08 10:47:19;;;;;;;41.95;28.70;;;;;;;30.18;65.08;98303.31;5034755;28;20052;-78
2021/06/08 10:49:49;;;;;;;43.05;27.95;;;;;;;30.83;59.42;98303.59;5035175;28;20118;-78
2021/06/08 10:52:17;;;;;;;39.97;26.40;;;;;;;31.40;53.10;98303.88;5052095;28;20045;-78
2021/06/08 10:54:47;;;;;;;44.70;29.13;;;;;;;30.65;59.10;98301.19;5034853;28;20133;-77
2021/06/08 10:57:16;;;;;;;42.97;26.48;;;;;;;30.00;65.33;98307.66;5017826;28;20073;-78
2021/06/08 10:59:51;;;;;;;49.28;32.63;;;;;;;28.81;84.87;98306.34;5017582;28;20458;-79
2021/06/08 11:02:36;;;;;;;;;;;;;;;29.38;78.22;98305.53;5037595;28;20106;-78
2021/06/08 11:05:03;;;;;;;47.50;31.33;;;;;;;29.90;66.31;98306.66;5053453;28;19921;-79
2021/06/08 11:07:42;;;;;;;43.60;27.52;;;;;;;29.01;79.61;98303.69;5034245;28;20036;-79
2021/06/08 11:10:30;;;;;;;39.83;26.75;;;;;;;29.33;70.45;98314.38;5054223;28;20419;-80
2021/06/08 11:13:07;;;;;;;38.85;25.13;;;;;;;31.07;61.32;98301.47;5036387;28;20040;-79
2021/06/08 11:15:40;;;;;;;45.05;29.08;;;;;;;31.55;51.31;98307.13;5055035;28;20048;-79
2021/06/08 11:18:30;;;;;;;39.17;27.13;;;;;;;31.49;54.28;98303.28;5052917;28;20045;-79
2021/06/08 11:20:57;;;;;;;39.00;26.48;;;;;;;30.54;59.32;98303.41;5035368;28;20053;-79
2021/06/08 11:23:33;;;;;;;36.00;23.85;;;;;;;32.07;53.75;98292.19;5050876;28;20055;-79
2021/06/08 11:26:01;;;;;;;33.95;23.52;;;;;;;32.25;52.48;98292.50;5034505;28;20083;-78